DLH4364 EDDS-LGMK
Flight info
| Callsign | DLH4364 |
|---|---|
| Flight time | 2h 15m |
| Altitude | 35000 |
| Route | ABTAL4H/07 ABTAL L173 RIXED Y161 MAH L173 OTT M867 VAVOR DCT RADIZ DCT NEMEK/N0460F390 DCT ELTIB DCT RETRA DCT BONZI DCT BITLA UN137 AGAPU |
| Aircraft | A333/H-SDE3GHIJ2J3J5M1RVWXY/LB2D1 |
Departure
| Time | 2026-05-08 14:54 |
|---|---|
| Airport | Stuttgart Airport (EDDS) |
Arrival
| Time | 2026-05-08 17:09 |
|---|---|
| Airport | Mykonos Island National Airport (LGMK) |
| Time | Latitude | Longitude | Altitude | Speed | Heading |
|---|---|---|---|---|---|
| 2026-05-08 14:25 | 48.68849 | 9.19216 | 1319 ft | 0 kts | 344° |
| 2026-05-08 14:45 | 48.68844 | 9.19218 | 1319 ft | 4 kts | 344° |
| 2026-05-08 14:45 | 48.68818 | 9.19229 | 1319 ft | 4 kts | 344° |
| 2026-05-08 14:45 | 48.68796 | 9.19238 | 1321 ft | 4 kts | 5° |
| 2026-05-08 14:46 | 48.68776 | 9.19222 | 1328 ft | 4 kts | 64° |
| 2026-05-08 14:46 | 48.68768 | 9.19184 | 1320 ft | 4 kts | 78° |
| 2026-05-08 14:46 | 48.68765 | 9.19160 | 1321 ft | 0 kts | 74° |
| 2026-05-08 14:50 | 48.68766 | 9.19167 | 1321 ft | 2 kts | 74° |
| 2026-05-08 14:50 | 48.68772 | 9.19202 | 1320 ft | 5 kts | 74° |
| 2026-05-08 14:50 | 48.68786 | 9.19275 | 1318 ft | 10 kts | 74° |
| 2026-05-08 14:51 | 48.68807 | 9.19386 | 1317 ft | 12 kts | 73° |
| 2026-05-08 14:51 | 48.68833 | 9.19523 | 1315 ft | 15 kts | 74° |
| 2026-05-08 14:51 | 48.68864 | 9.19688 | 1312 ft | 18 kts | 73° |
| 2026-05-08 14:51 | 48.68879 | 9.19873 | 1306 ft | 14 kts | 120° |
| 2026-05-08 14:52 | 48.68807 | 9.19927 | 1300 ft | 14 kts | 156° |
| 2026-05-08 14:52 | 48.68588 | 9.20063 | 1287 ft | 9 kts | 113° |
| 2026-05-08 14:52 | 48.68596 | 9.20127 | 1287 ft | 6 kts | 75° |
| 2026-05-08 14:53 | 48.68612 | 9.20214 | 1286 ft | 11 kts | 73° |
| 2026-05-08 14:53 | 48.68640 | 9.20362 | 1281 ft | 27 kts | 74° |
| 2026-05-08 14:53 | 48.68755 | 9.20969 | 1272 ft | 94 kts | 74° |
| 2026-05-08 14:53 | 48.68995 | 9.22239 | 1254 ft | 155 kts | 73° |
| 2026-05-08 14:54 | 48.69302 | 9.23906 | 1803 ft | 171 kts | 72° |
| 2026-05-08 14:54 | 48.69634 | 9.25699 | 2598 ft | 184 kts | 72° |
| 2026-05-08 14:54 | 48.70008 | 9.27676 | 3025 ft | 211 kts | 73° |
| 2026-05-08 14:54 | 48.70443 | 9.29942 | 3345 ft | 236 kts | 72° |
| 2026-05-08 14:55 | 48.70929 | 9.32439 | 3836 ft | 256 kts | 73° |
| 2026-05-08 14:55 | 48.71431 | 9.35066 | 4616 ft | 263 kts | 74° |
| 2026-05-08 14:55 | 48.71939 | 9.37756 | 5428 ft | 268 kts | 74° |
| 2026-05-08 14:55 | 48.72457 | 9.40503 | 6308 ft | 274 kts | 75° |
| 2026-05-08 14:56 | 48.72988 | 9.43318 | 7139 ft | 280 kts | 74° |
| 2026-05-08 14:56 | 48.73520 | 9.46146 | 7958 ft | 287 kts | 74° |
| 2026-05-08 14:56 | 48.74074 | 9.49090 | 8836 ft | 292 kts | 75° |
| 2026-05-08 14:56 | 48.74634 | 9.52075 | 9701 ft | 298 kts | 75° |
| 2026-05-08 14:57 | 48.75210 | 9.55144 | 10374 ft | 310 kts | 75° |
| 2026-05-08 14:57 | 48.75822 | 9.58418 | 10698 ft | 333 kts | 75° |
| 2026-05-08 14:57 | 48.76464 | 9.61919 | 11018 ft | 354 kts | 77° |
| 2026-05-08 14:57 | 48.76741 | 9.65635 | 11579 ft | 364 kts | 92° |
| 2026-05-08 14:58 | 48.76362 | 9.69453 | 12359 ft | 367 kts | 104° |
| 2026-05-08 14:58 | 48.75647 | 9.73183 | 13167 ft | 370 kts | 110° |
| 2026-05-08 14:58 | 48.74740 | 9.76870 | 13944 ft | 374 kts | 113° |
| 2026-05-08 14:58 | 48.73739 | 9.80524 | 14659 ft | 378 kts | 114° |
| 2026-05-08 14:59 | 48.72701 | 9.84199 | 15362 ft | 382 kts | 114° |
| 2026-05-08 14:59 | 48.70619 | 9.91654 | 16692 ft | 388 kts | 114° |
| 2026-05-08 14:59 | 48.69586 | 9.95445 | 17125 ft | 391 kts | 114° |
| 2026-05-08 15:00 | 48.68557 | 9.99269 | 17756 ft | 396 kts | 113° |
| 2026-05-08 15:00 | 48.67517 | 10.03162 | 18440 ft | 399 kts | 113° |
| 2026-05-08 15:00 | 48.66472 | 10.07082 | 18935 ft | 405 kts | 113° |
| 2026-05-08 15:00 | 48.65423 | 10.11014 | 19454 ft | 410 kts | 113° |
| 2026-05-08 15:01 | 48.64336 | 10.15079 | 20040 ft | 413 kts | 114° |
| 2026-05-08 15:01 | 48.63267 | 10.19067 | 20590 ft | 417 kts | 114° |
| 2026-05-08 15:01 | 48.62168 | 10.23155 | 21134 ft | 420 kts | 114° |
| 2026-05-08 15:01 | 48.61049 | 10.27310 | 21664 ft | 424 kts | 114° |
| 2026-05-08 15:02 | 48.59940 | 10.31418 | 22169 ft | 428 kts | 114° |
| 2026-05-08 15:02 | 48.58802 | 10.35624 | 22679 ft | 432 kts | 114° |
| 2026-05-08 15:02 | 48.57656 | 10.39854 | 23174 ft | 436 kts | 114° |
| 2026-05-08 15:02 | 48.56502 | 10.44107 | 23654 ft | 440 kts | 114° |
| 2026-05-08 15:03 | 48.55334 | 10.48403 | 24092 ft | 442 kts | 114° |
| 2026-05-08 15:03 | 48.54176 | 10.52658 | 24506 ft | 445 kts | 115° |
| 2026-05-08 15:03 | 48.52985 | 10.57021 | 24915 ft | 449 kts | 115° |
| 2026-05-08 15:03 | 48.51788 | 10.61399 | 25339 ft | 452 kts | 115° |
| 2026-05-08 15:04 | 48.50582 | 10.65801 | 25733 ft | 455 kts | 115° |
| 2026-05-08 15:04 | 48.49366 | 10.70233 | 26130 ft | 458 kts | 115° |
| 2026-05-08 15:04 | 48.48156 | 10.74634 | 26527 ft | 461 kts | 116° |
| 2026-05-08 15:04 | 48.46920 | 10.79119 | 26931 ft | 464 kts | 116° |
| 2026-05-08 15:05 | 48.45671 | 10.83643 | 27336 ft | 467 kts | 116° |
| 2026-05-08 15:05 | 48.44419 | 10.88170 | 27642 ft | 472 kts | 116° |
| 2026-05-08 15:05 | 48.43150 | 10.92747 | 27996 ft | 476 kts | 117° |
| 2026-05-08 15:05 | 48.41864 | 10.97379 | 28384 ft | 478 kts | 117° |
| 2026-05-08 15:06 | 48.40592 | 11.01956 | 28770 ft | 481 kts | 117° |
| 2026-05-08 15:06 | 48.39291 | 11.06625 | 29156 ft | 484 kts | 117° |
| 2026-05-08 15:06 | 48.37977 | 11.11331 | 29518 ft | 487 kts | 117° |
| 2026-05-08 15:06 | 48.36655 | 11.16056 | 29892 ft | 491 kts | 118° |
| 2026-05-08 15:07 | 48.35336 | 11.20761 | 30239 ft | 493 kts | 118° |
| 2026-05-08 15:07 | 48.34000 | 11.25519 | 30589 ft | 495 kts | 118° |
| 2026-05-08 15:07 | 48.32657 | 11.30297 | 30970 ft | 496 kts | 118° |
| 2026-05-08 15:07 | 48.31306 | 11.35090 | 31310 ft | 497 kts | 118° |
| 2026-05-08 15:08 | 48.29955 | 11.39877 | 31757 ft | 496 kts | 118° |
| 2026-05-08 15:08 | 48.29063 | 11.43033 | 32096 ft | 494 kts | 118° |
| 2026-05-08 15:08 | 48.27266 | 11.49378 | 32767 ft | 492 kts | 118° |
| 2026-05-08 15:08 | 48.25942 | 11.54042 | 33234 ft | 490 kts | 118° |
| 2026-05-08 15:09 | 48.24590 | 11.58793 | 33703 ft | 488 kts | 118° |
| 2026-05-08 15:09 | 48.23268 | 11.63428 | 34126 ft | 487 kts | 119° |
| 2026-05-08 15:09 | 48.21934 | 11.68093 | 34447 ft | 486 kts | 119° |
| 2026-05-08 15:09 | 48.20597 | 11.72755 | 34749 ft | 486 kts | 119° |
| 2026-05-08 15:10 | 48.19189 | 11.77355 | 35000 ft | 484 kts | 124° |
| 2026-05-08 15:10 | 48.17418 | 11.81618 | 35058 ft | 476 kts | 133° |
| 2026-05-08 15:10 | 48.12977 | 11.88760 | 35058 ft | 467 kts | 142° |
| 2026-05-08 15:11 | 48.08121 | 11.95452 | 35041 ft | 481 kts | 143° |
| 2026-05-08 15:11 | 48.03121 | 12.02203 | 35035 ft | 488 kts | 144° |
| 2026-05-08 15:12 | 47.98121 | 12.09013 | 35287 ft | 485 kts | 143° |
| 2026-05-08 15:12 | 47.95619 | 12.12432 | 35577 ft | 485 kts | 143° |
| 2026-05-08 15:12 | 47.93116 | 12.15829 | 35776 ft | 486 kts | 144° |
| 2026-05-08 15:13 | 47.90564 | 12.19145 | 35988 ft | 487 kts | 145° |
| 2026-05-08 15:13 | 47.87998 | 12.22378 | 36210 ft | 488 kts | 145° |
| 2026-05-08 15:13 | 47.85386 | 12.25622 | 36406 ft | 489 kts | 145° |
| 2026-05-08 15:13 | 47.82769 | 12.28859 | 36626 ft | 490 kts | 145° |
| 2026-05-08 15:14 | 47.80139 | 12.32115 | 36835 ft | 491 kts | 145° |
| 2026-05-08 15:14 | 47.77509 | 12.35376 | 37061 ft | 492 kts | 144° |
| 2026-05-08 15:14 | 47.74870 | 12.38655 | 37308 ft | 492 kts | 144° |
| 2026-05-08 15:14 | 47.72234 | 12.41935 | 37545 ft | 493 kts | 144° |
| 2026-05-08 15:15 | 47.69635 | 12.45164 | 37704 ft | 495 kts | 144° |
| 2026-05-08 15:15 | 47.66989 | 12.48448 | 37902 ft | 496 kts | 144° |
| 2026-05-08 15:15 | 47.64338 | 12.51735 | 38087 ft | 497 kts | 144° |
| 2026-05-08 15:15 | 47.61699 | 12.55085 | 38293 ft | 499 kts | 142° |
| 2026-05-08 15:16 | 47.59138 | 12.58575 | 38498 ft | 501 kts | 140° |
| 2026-05-08 15:16 | 47.56615 | 12.62152 | 38700 ft | 502 kts | 139° |
| 2026-05-08 15:16 | 47.54111 | 12.65754 | 38871 ft | 502 kts | 139° |
| 2026-05-08 15:16 | 47.52414 | 12.68200 | 39009 ft | 501 kts | 139° |
| 2026-05-08 15:17 | 47.47410 | 12.75360 | 39021 ft | 501 kts | 139° |
| 2026-05-08 15:17 | 47.42391 | 12.82451 | 39027 ft | 502 kts | 140° |
| 2026-05-08 15:18 | 47.37328 | 12.89549 | 39018 ft | 501 kts | 140° |
| 2026-05-08 15:18 | 47.32261 | 12.96630 | 39032 ft | 502 kts | 140° |
| 2026-05-08 15:19 | 47.27179 | 13.03715 | 39031 ft | 502 kts | 140° |
| 2026-05-08 15:19 | 47.22115 | 13.10761 | 39036 ft | 502 kts | 140° |
| 2026-05-08 15:20 | 47.17070 | 13.17761 | 39029 ft | 501 kts | 140° |
| 2026-05-08 15:20 | 47.11988 | 13.24791 | 39036 ft | 501 kts | 140° |
| 2026-05-08 15:21 | 47.06902 | 13.31805 | 39031 ft | 501 kts | 140° |
| 2026-05-08 15:21 | 47.01840 | 13.38772 | 39031 ft | 501 kts | 140° |
| 2026-05-08 15:22 | 46.96750 | 13.45761 | 39008 ft | 500 kts | 140° |
| 2026-05-08 15:22 | 46.91649 | 13.52736 | 39038 ft | 502 kts | 140° |
| 2026-05-08 15:23 | 46.86566 | 13.59673 | 39032 ft | 500 kts | 141° |
| 2026-05-08 15:23 | 46.81459 | 13.66622 | 39041 ft | 501 kts | 141° |
| 2026-05-08 15:24 | 46.76395 | 13.73494 | 39015 ft | 500 kts | 140° |
| 2026-05-08 15:24 | 46.71278 | 13.80417 | 39036 ft | 500 kts | 141° |
| 2026-05-08 15:25 | 46.66199 | 13.87274 | 39039 ft | 499 kts | 141° |
| 2026-05-08 15:25 | 46.61083 | 13.94161 | 39033 ft | 499 kts | 141° |
| 2026-05-08 15:26 | 46.55976 | 14.01018 | 39032 ft | 499 kts | 141° |
| 2026-05-08 15:26 | 46.50899 | 14.07814 | 39015 ft | 499 kts | 141° |
| 2026-05-08 15:27 | 46.45786 | 14.14643 | 39024 ft | 498 kts | 141° |
| 2026-05-08 15:27 | 46.40704 | 14.21412 | 39021 ft | 498 kts | 141° |
| 2026-05-08 15:28 | 46.35598 | 14.28194 | 39021 ft | 497 kts | 141° |
| 2026-05-08 15:28 | 46.30508 | 14.34936 | 39020 ft | 497 kts | 141° |
| 2026-05-08 15:29 | 46.25393 | 14.41692 | 39013 ft | 497 kts | 141° |
| 2026-05-08 15:29 | 46.20267 | 14.48445 | 39019 ft | 497 kts | 141° |
| 2026-05-08 15:30 | 46.15149 | 14.55172 | 39020 ft | 497 kts | 142° |
| 2026-05-08 15:30 | 46.10064 | 14.61836 | 39021 ft | 497 kts | 142° |
| 2026-05-08 15:31 | 46.04936 | 14.68540 | 39022 ft | 497 kts | 142° |
| 2026-05-08 15:31 | 45.99811 | 14.75221 | 39021 ft | 497 kts | 142° |
| 2026-05-08 15:32 | 45.94713 | 14.81852 | 39034 ft | 497 kts | 142° |
| 2026-05-08 15:32 | 45.89561 | 14.88534 | 39020 ft | 498 kts | 142° |
| 2026-05-08 15:33 | 45.84441 | 14.95160 | 39021 ft | 498 kts | 142° |
| 2026-05-08 15:33 | 45.79282 | 15.01817 | 39039 ft | 498 kts | 142° |
| 2026-05-08 15:34 | 45.74123 | 15.08458 | 39027 ft | 498 kts | 142° |
| 2026-05-08 15:34 | 45.68985 | 15.15055 | 39035 ft | 498 kts | 142° |
| 2026-05-08 15:35 | 45.63816 | 15.21674 | 39040 ft | 498 kts | 142° |
| 2026-05-08 15:35 | 45.58665 | 15.28254 | 39039 ft | 498 kts | 142° |
| 2026-05-08 15:36 | 45.53440 | 15.34792 | 39040 ft | 498 kts | 143° |
| 2026-05-08 15:36 | 45.48175 | 15.41236 | 39040 ft | 498 kts | 143° |
| 2026-05-08 15:37 | 45.42936 | 15.47622 | 39038 ft | 498 kts | 143° |
| 2026-05-08 15:37 | 45.37676 | 15.54035 | 39040 ft | 498 kts | 143° |
| 2026-05-08 15:38 | 45.32413 | 15.60445 | 39039 ft | 498 kts | 143° |
| 2026-05-08 15:38 | 45.27140 | 15.66852 | 39031 ft | 498 kts | 143° |
| 2026-05-08 15:39 | 45.21880 | 15.73228 | 39043 ft | 499 kts | 143° |
| 2026-05-08 15:39 | 45.16617 | 15.79591 | 39042 ft | 499 kts | 143° |
| 2026-05-08 15:40 | 45.11324 | 15.85973 | 39038 ft | 499 kts | 143° |
| 2026-05-08 15:40 | 45.06027 | 15.92344 | 39036 ft | 499 kts | 143° |
| 2026-05-08 15:41 | 45.00760 | 15.98663 | 39040 ft | 499 kts | 143° |
| 2026-05-08 15:41 | 44.95474 | 16.04989 | 39039 ft | 499 kts | 143° |
| 2026-05-08 15:42 | 44.90165 | 16.11326 | 39042 ft | 499 kts | 143° |
| 2026-05-08 15:42 | 44.84853 | 16.17652 | 39036 ft | 499 kts | 143° |
| 2026-05-08 15:43 | 44.79577 | 16.23917 | 39036 ft | 499 kts | 143° |
| 2026-05-08 15:43 | 44.74260 | 16.30216 | 39042 ft | 499 kts | 143° |
| 2026-05-08 15:44 | 44.68944 | 16.36499 | 39043 ft | 499 kts | 143° |
| 2026-05-08 15:44 | 44.63613 | 16.42783 | 39044 ft | 499 kts | 143° |
| 2026-05-08 15:45 | 44.58318 | 16.49008 | 39040 ft | 499 kts | 143° |
| 2026-05-08 15:45 | 44.52976 | 16.55273 | 39038 ft | 499 kts | 143° |
| 2026-05-08 15:46 | 44.47652 | 16.61502 | 39040 ft | 500 kts | 143° |
| 2026-05-08 15:46 | 44.42294 | 16.67756 | 39045 ft | 500 kts | 143° |
| 2026-05-08 15:47 | 44.36969 | 16.73957 | 39037 ft | 499 kts | 143° |
| 2026-05-08 15:47 | 44.31621 | 16.80167 | 39032 ft | 500 kts | 143° |
| 2026-05-08 15:48 | 44.23811 | 16.89810 | 39038 ft | 502 kts | 140° |
| 2026-05-08 15:49 | 44.18656 | 16.96427 | 39024 ft | 502 kts | 140° |
| 2026-05-08 15:49 | 44.13530 | 17.02959 | 39029 ft | 500 kts | 141° |
| 2026-05-08 15:50 | 44.08368 | 17.09479 | 39019 ft | 500 kts | 141° |
| 2026-05-08 15:50 | 44.03229 | 17.15942 | 39017 ft | 502 kts | 141° |
| 2026-05-08 15:51 | 43.98036 | 17.22456 | 39016 ft | 502 kts | 141° |
| 2026-05-08 15:51 | 43.92848 | 17.28951 | 39021 ft | 501 kts | 141° |
| 2026-05-08 15:52 | 43.87694 | 17.35389 | 39022 ft | 501 kts | 141° |
| 2026-05-08 15:52 | 43.82506 | 17.41853 | 39019 ft | 501 kts | 141° |
| 2026-05-08 15:53 | 43.77299 | 17.48325 | 39014 ft | 502 kts | 141° |
| 2026-05-08 15:53 | 43.72117 | 17.54751 | 39018 ft | 501 kts | 141° |
| 2026-05-08 15:53 | 43.69511 | 17.57971 | 38707 ft | 502 kts | 134° |
| 2026-05-08 15:54 | 43.66913 | 17.61181 | 39165 ft | 500 kts | 140° |
| 2026-05-08 15:54 | 43.64325 | 17.64372 | 39349 ft | 500 kts | 141° |
| 2026-05-08 15:54 | 43.61742 | 17.67556 | 39362 ft | 493 kts | 141° |
| 2026-05-08 15:54 | 43.59209 | 17.70682 | 39137 ft | 495 kts | 141° |
| 2026-05-08 15:55 | 43.56623 | 17.73867 | 39030 ft | 500 kts | 141° |
| 2026-05-08 15:55 | 43.48807 | 17.83463 | 39003 ft | 502 kts | 141° |
| 2026-05-08 15:56 | 43.43584 | 17.89857 | 39002 ft | 502 kts | 141° |
| 2026-05-08 15:56 | 43.38361 | 17.96234 | 38997 ft | 502 kts | 141° |
| 2026-05-08 15:57 | 43.33129 | 18.02607 | 38999 ft | 502 kts | 141° |
| 2026-05-08 15:57 | 43.27926 | 18.08929 | 39002 ft | 502 kts | 141° |
| 2026-05-08 15:58 | 43.22672 | 18.15298 | 39007 ft | 502 kts | 141° |
| 2026-05-08 15:58 | 43.17452 | 18.21609 | 39012 ft | 502 kts | 141° |
| 2026-05-08 15:59 | 43.12201 | 18.27943 | 39013 ft | 502 kts | 141° |
| 2026-05-08 15:59 | 43.06972 | 18.34237 | 39020 ft | 503 kts | 141° |
| 2026-05-08 16:00 | 43.01715 | 18.40549 | 39021 ft | 503 kts | 141° |
| 2026-05-08 16:00 | 42.96441 | 18.46866 | 39013 ft | 503 kts | 141° |
| 2026-05-08 16:01 | 42.91212 | 18.53114 | 39008 ft | 502 kts | 141° |
| 2026-05-08 16:01 | 42.85913 | 18.59430 | 39000 ft | 503 kts | 141° |
| 2026-05-08 16:02 | 42.81553 | 18.64615 | 39001 ft | 503 kts | 141° |
| 2026-05-08 16:02 | 42.75395 | 18.71922 | 38992 ft | 503 kts | 142° |
| 2026-05-08 16:03 | 42.70999 | 18.77125 | 38991 ft | 503 kts | 142° |
| 2026-05-08 16:03 | 42.65713 | 18.83370 | 38990 ft | 503 kts | 142° |
| 2026-05-08 16:04 | 42.60411 | 18.89617 | 38988 ft | 503 kts | 142° |
| 2026-05-08 16:04 | 42.55144 | 18.95808 | 38983 ft | 504 kts | 142° |
| 2026-05-08 16:05 | 42.49828 | 19.02043 | 38972 ft | 504 kts | 142° |
| 2026-05-08 16:05 | 42.44516 | 19.08260 | 38969 ft | 504 kts | 142° |
| 2026-05-08 16:06 | 42.39231 | 19.14431 | 38954 ft | 503 kts | 142° |
| 2026-05-08 16:06 | 42.33935 | 19.20600 | 38971 ft | 503 kts | 142° |
| 2026-05-08 16:07 | 42.28608 | 19.26789 | 38958 ft | 503 kts | 142° |
| 2026-05-08 16:07 | 42.23351 | 19.33048 | 38975 ft | 505 kts | 136° |
| 2026-05-08 16:08 | 42.18688 | 19.40126 | 38988 ft | 507 kts | 133° |
| 2026-05-08 16:08 | 42.14154 | 19.47428 | 38974 ft | 507 kts | 132° |
| 2026-05-08 16:09 | 42.09640 | 19.54765 | 38986 ft | 509 kts | 132° |
| 2026-05-08 16:09 | 42.05104 | 19.62095 | 38986 ft | 509 kts | 132° |
| 2026-05-08 16:10 | 42.00581 | 19.69359 | 38994 ft | 509 kts | 132° |
| 2026-05-08 16:10 | 41.96043 | 19.76622 | 38994 ft | 508 kts | 132° |
| 2026-05-08 16:11 | 41.91481 | 19.83905 | 38999 ft | 508 kts | 133° |
| 2026-05-08 16:11 | 41.86915 | 19.91178 | 38994 ft | 508 kts | 133° |
| 2026-05-08 16:12 | 41.82345 | 19.98440 | 39013 ft | 509 kts | 133° |
| 2026-05-08 16:12 | 41.77797 | 20.05651 | 39007 ft | 509 kts | 133° |
| 2026-05-08 16:13 | 41.73213 | 20.12906 | 39019 ft | 509 kts | 133° |
| 2026-05-08 16:13 | 41.68616 | 20.20155 | 39017 ft | 509 kts | 133° |
| 2026-05-08 16:14 | 41.64052 | 20.27333 | 39021 ft | 509 kts | 133° |
| 2026-05-08 16:14 | 41.59456 | 20.34551 | 39024 ft | 509 kts | 133° |
| 2026-05-08 16:15 | 41.54850 | 20.41770 | 39023 ft | 510 kts | 133° |
| 2026-05-08 16:15 | 41.50197 | 20.48860 | 39023 ft | 509 kts | 136° |
| 2026-05-08 16:16 | 41.45322 | 20.55734 | 39026 ft | 509 kts | 137° |
| 2026-05-08 16:16 | 41.40416 | 20.62535 | 39049 ft | 509 kts | 137° |
| 2026-05-08 16:17 | 41.36348 | 20.68199 | 39056 ft | 508 kts | 137° |
| 2026-05-08 16:17 | 41.30670 | 20.76138 | 39058 ft | 508 kts | 137° |
| 2026-05-08 16:18 | 41.25776 | 20.82974 | 39067 ft | 509 kts | 137° |
| 2026-05-08 16:18 | 41.20903 | 20.89764 | 39070 ft | 510 kts | 137° |
| 2026-05-08 16:19 | 41.15998 | 20.96580 | 39062 ft | 510 kts | 137° |
| 2026-05-08 16:19 | 41.11092 | 21.03384 | 39053 ft | 510 kts | 137° |
| 2026-05-08 16:20 | 41.06176 | 21.10184 | 39040 ft | 510 kts | 137° |
| 2026-05-08 16:20 | 41.01253 | 21.16972 | 39017 ft | 510 kts | 137° |
| 2026-05-08 16:21 | 40.96350 | 21.23737 | 39033 ft | 512 kts | 137° |
| 2026-05-08 16:21 | 40.91426 | 21.30499 | 39036 ft | 512 kts | 137° |
| 2026-05-08 16:22 | 40.86469 | 21.37293 | 39035 ft | 512 kts | 137° |
| 2026-05-08 16:22 | 40.81537 | 21.44095 | 39033 ft | 512 kts | 137° |
| 2026-05-08 16:23 | 40.76640 | 21.50854 | 39035 ft | 512 kts | 137° |
| 2026-05-08 16:23 | 40.71710 | 21.57640 | 39035 ft | 512 kts | 137° |
| 2026-05-08 16:24 | 40.66767 | 21.64423 | 39037 ft | 512 kts | 137° |
| 2026-05-08 16:24 | 40.61824 | 21.71189 | 39036 ft | 512 kts | 137° |
| 2026-05-08 16:25 | 40.56873 | 21.77951 | 39048 ft | 512 kts | 137° |
| 2026-05-08 16:25 | 40.51960 | 21.84646 | 39052 ft | 511 kts | 137° |
| 2026-05-08 16:26 | 40.47019 | 21.91366 | 39052 ft | 510 kts | 137° |
| 2026-05-08 16:26 | 40.42072 | 21.98077 | 39063 ft | 510 kts | 137° |
| 2026-05-08 16:27 | 40.37125 | 22.04773 | 39062 ft | 511 kts | 137° |
| 2026-05-08 16:27 | 40.32201 | 22.11423 | 39060 ft | 511 kts | 137° |
| 2026-05-08 16:28 | 40.27243 | 22.18105 | 39046 ft | 510 kts | 138° |
| 2026-05-08 16:28 | 40.22282 | 22.24777 | 39057 ft | 510 kts | 138° |
| 2026-05-08 16:29 | 40.17358 | 22.31382 | 39045 ft | 510 kts | 138° |
| 2026-05-08 16:29 | 40.12384 | 22.38039 | 39044 ft | 511 kts | 138° |
| 2026-05-08 16:30 | 40.07454 | 22.44620 | 39046 ft | 511 kts | 138° |
| 2026-05-08 16:30 | 40.02477 | 22.51261 | 39039 ft | 510 kts | 138° |
| 2026-05-08 16:31 | 39.97505 | 22.57872 | 39041 ft | 510 kts | 139° |
| 2026-05-08 16:31 | 39.92546 | 22.64450 | 39042 ft | 510 kts | 139° |
| 2026-05-08 16:32 | 39.87548 | 22.71067 | 39039 ft | 512 kts | 139° |
| 2026-05-08 16:32 | 39.82549 | 22.77674 | 39037 ft | 512 kts | 139° |
| 2026-05-08 16:33 | 39.77540 | 22.84276 | 39036 ft | 512 kts | 139° |
| 2026-05-08 16:33 | 39.72567 | 22.90816 | 39032 ft | 512 kts | 139° |
| 2026-05-08 16:34 | 39.67551 | 22.97401 | 39035 ft | 512 kts | 139° |
| 2026-05-08 16:34 | 39.62529 | 23.03978 | 39030 ft | 512 kts | 139° |
| 2026-05-08 16:35 | 39.57507 | 23.10541 | 39034 ft | 512 kts | 139° |
| 2026-05-08 16:35 | 39.52530 | 23.17033 | 38802 ft | 506 kts | 140° |
| 2026-05-08 16:36 | 39.50065 | 23.20247 | 38541 ft | 498 kts | 140° |
| 2026-05-08 16:36 | 39.47497 | 23.23170 | 38257 ft | 484 kts | 151° |
| 2026-05-08 16:36 | 39.44598 | 23.25292 | 37763 ft | 474 kts | 162° |
| 2026-05-08 16:36 | 39.41565 | 23.26930 | 37257 ft | 472 kts | 165° |
| 2026-05-08 16:37 | 39.38506 | 23.28490 | 36767 ft | 473 kts | 165° |
| 2026-05-08 16:37 | 39.35441 | 23.30059 | 36242 ft | 475 kts | 165° |
| 2026-05-08 16:37 | 39.32371 | 23.31678 | 35746 ft | 477 kts | 165° |
| 2026-05-08 16:37 | 39.29334 | 23.33308 | 35296 ft | 479 kts | 165° |
| 2026-05-08 16:38 | 39.26251 | 23.34981 | 34833 ft | 480 kts | 165° |
| 2026-05-08 16:38 | 39.23171 | 23.36674 | 34376 ft | 481 kts | 165° |
| 2026-05-08 16:38 | 39.20086 | 23.38387 | 33924 ft | 482 kts | 165° |
| 2026-05-08 16:38 | 39.17001 | 23.40116 | 33407 ft | 483 kts | 165° |
| 2026-05-08 16:39 | 39.13909 | 23.41855 | 32900 ft | 485 kts | 165° |
| 2026-05-08 16:39 | 39.10813 | 23.43604 | 32350 ft | 487 kts | 165° |
| 2026-05-08 16:39 | 39.07733 | 23.45335 | 31865 ft | 490 kts | 165° |
| 2026-05-08 16:39 | 39.04591 | 23.47094 | 31385 ft | 492 kts | 165° |
| 2026-05-08 16:40 | 39.01445 | 23.48874 | 30911 ft | 495 kts | 163° |
| 2026-05-08 16:40 | 38.98427 | 23.51005 | 30431 ft | 503 kts | 155° |
| 2026-05-08 16:40 | 38.95613 | 23.53738 | 29961 ft | 510 kts | 145° |
| 2026-05-08 16:40 | 38.93123 | 23.57019 | 29405 ft | 513 kts | 139° |
| 2026-05-08 16:41 | 38.90777 | 23.60486 | 28857 ft | 510 kts | 137° |
| 2026-05-08 16:41 | 38.88481 | 23.63949 | 28401 ft | 505 kts | 137° |
| 2026-05-08 16:41 | 38.86212 | 23.67369 | 27947 ft | 501 kts | 136° |
| 2026-05-08 16:42 | 38.81733 | 23.74094 | 27180 ft | 495 kts | 136° |
| 2026-05-08 16:42 | 38.79501 | 23.77436 | 26805 ft | 492 kts | 136° |
| 2026-05-08 16:42 | 38.77272 | 23.80766 | 26432 ft | 489 kts | 136° |
| 2026-05-08 16:42 | 38.75066 | 23.84060 | 26064 ft | 485 kts | 136° |
| 2026-05-08 16:43 | 38.72863 | 23.87345 | 25699 ft | 482 kts | 136° |
| 2026-05-08 16:43 | 38.70685 | 23.90589 | 25344 ft | 479 kts | 136° |
| 2026-05-08 16:43 | 38.68514 | 23.93819 | 24985 ft | 476 kts | 136° |
| 2026-05-08 16:43 | 38.66384 | 23.96985 | 24643 ft | 473 kts | 136° |
| 2026-05-08 16:44 | 38.64234 | 24.00177 | 24285 ft | 470 kts | 136° |
| 2026-05-08 16:44 | 38.62101 | 24.03341 | 23954 ft | 467 kts | 136° |
| 2026-05-08 16:44 | 38.59980 | 24.06486 | 23622 ft | 465 kts | 136° |
| 2026-05-08 16:44 | 38.58583 | 24.08554 | 23351 ft | 463 kts | 136° |
| 2026-05-08 16:45 | 38.55803 | 24.12664 | 22823 ft | 459 kts | 136° |
| 2026-05-08 16:45 | 38.53714 | 24.15748 | 22415 ft | 456 kts | 136° |
| 2026-05-08 16:45 | 38.51640 | 24.18808 | 21996 ft | 455 kts | 135° |
| 2026-05-08 16:45 | 38.50273 | 24.20824 | 21672 ft | 453 kts | 135° |
| 2026-05-08 16:46 | 38.48213 | 24.23860 | 21151 ft | 450 kts | 135° |
| 2026-05-08 16:46 | 38.46167 | 24.26872 | 20662 ft | 447 kts | 135° |
| 2026-05-08 16:46 | 38.44130 | 24.29869 | 20178 ft | 444 kts | 135° |
| 2026-05-08 16:46 | 38.42042 | 24.32748 | 19698 ft | 438 kts | 141° |
| 2026-05-08 16:47 | 38.39766 | 24.35302 | 19226 ft | 433 kts | 145° |
| 2026-05-08 16:47 | 38.37447 | 24.37757 | 18753 ft | 430 kts | 145° |
| 2026-05-08 16:47 | 38.35173 | 24.40144 | 18320 ft | 427 kts | 145° |
| 2026-05-08 16:47 | 38.32879 | 24.42553 | 17778 ft | 424 kts | 145° |
| 2026-05-08 16:48 | 38.30573 | 24.44876 | 17259 ft | 419 kts | 148° |
| 2026-05-08 16:48 | 38.28211 | 24.47018 | 16735 ft | 414 kts | 150° |
| 2026-05-08 16:48 | 38.25847 | 24.49097 | 16230 ft | 411 kts | 150° |
| 2026-05-08 16:48 | 38.23530 | 24.51124 | 15731 ft | 406 kts | 150° |
| 2026-05-08 16:49 | 38.21203 | 24.53154 | 15243 ft | 401 kts | 150° |
| 2026-05-08 16:49 | 38.18907 | 24.55152 | 14765 ft | 398 kts | 150° |
| 2026-05-08 16:49 | 38.16625 | 24.57132 | 14291 ft | 395 kts | 150° |
| 2026-05-08 16:49 | 38.14360 | 24.59089 | 13806 ft | 392 kts | 150° |
| 2026-05-08 16:50 | 38.12109 | 24.61017 | 13303 ft | 389 kts | 150° |
| 2026-05-08 16:50 | 38.09840 | 24.62867 | 12789 ft | 385 kts | 153° |
| 2026-05-08 16:50 | 38.07555 | 24.64536 | 12296 ft | 382 kts | 155° |
| 2026-05-08 16:50 | 38.05245 | 24.66182 | 11786 ft | 377 kts | 155° |
| 2026-05-08 16:51 | 38.02971 | 24.67799 | 11318 ft | 370 kts | 155° |
| 2026-05-08 16:51 | 38.00744 | 24.69381 | 10825 ft | 364 kts | 155° |
| 2026-05-08 16:51 | 37.98543 | 24.70946 | 10362 ft | 358 kts | 155° |
| 2026-05-08 16:51 | 37.96382 | 24.72483 | 9886 ft | 353 kts | 155° |
| 2026-05-08 16:52 | 37.94282 | 24.73979 | 9395 ft | 349 kts | 155° |
| 2026-05-08 16:52 | 37.92194 | 24.75472 | 9109 ft | 338 kts | 155° |
| 2026-05-08 16:52 | 37.90195 | 24.76910 | 9071 ft | 321 kts | 155° |
| 2026-05-08 16:52 | 37.88316 | 24.78276 | 9069 ft | 303 kts | 155° |
| 2026-05-08 16:53 | 37.84772 | 24.80887 | 9063 ft | 292 kts | 155° |
| 2026-05-08 16:53 | 37.83009 | 24.82186 | 9070 ft | 293 kts | 155° |
| 2026-05-08 16:53 | 37.81268 | 24.83467 | 9070 ft | 293 kts | 155° |
| 2026-05-08 16:54 | 37.79503 | 24.84765 | 9067 ft | 293 kts | 155° |
| 2026-05-08 16:54 | 37.77734 | 24.86066 | 9066 ft | 293 kts | 155° |
| 2026-05-08 16:54 | 37.75969 | 24.87362 | 9067 ft | 293 kts | 155° |
| 2026-05-08 16:54 | 37.74201 | 24.88660 | 9058 ft | 293 kts | 155° |
| 2026-05-08 16:55 | 37.72446 | 24.90001 | 9069 ft | 297 kts | 149° |
| 2026-05-08 16:55 | 37.71001 | 24.91892 | 9077 ft | 303 kts | 129° |
| 2026-05-08 16:55 | 37.69820 | 24.94117 | 9067 ft | 305 kts | 125° |
| 2026-05-08 16:55 | 37.68685 | 24.96378 | 9075 ft | 305 kts | 125° |
| 2026-05-08 16:56 | 37.67550 | 24.98653 | 9073 ft | 306 kts | 125° |
| 2026-05-08 16:56 | 37.66415 | 25.00925 | 9078 ft | 306 kts | 125° |
| 2026-05-08 16:56 | 37.65295 | 25.03173 | 9068 ft | 307 kts | 125° |
| 2026-05-08 16:56 | 37.64148 | 25.05489 | 9077 ft | 308 kts | 125° |
| 2026-05-08 16:57 | 37.63049 | 25.07726 | 9075 ft | 296 kts | 126° |
| 2026-05-08 16:57 | 37.61991 | 25.09897 | 9077 ft | 286 kts | 125° |
| 2026-05-08 16:57 | 37.60961 | 25.12028 | 9074 ft | 284 kts | 124° |
| 2026-05-08 16:57 | 37.59922 | 25.14163 | 9076 ft | 285 kts | 125° |
| 2026-05-08 16:58 | 37.58879 | 25.16293 | 9079 ft | 285 kts | 125° |
| 2026-05-08 16:58 | 37.57829 | 25.18419 | 9073 ft | 285 kts | 125° |
| 2026-05-08 16:58 | 37.56773 | 25.20541 | 9063 ft | 284 kts | 125° |
| 2026-05-08 16:58 | 37.55715 | 25.22641 | 9075 ft | 283 kts | 125° |
| 2026-05-08 16:59 | 37.54661 | 25.24746 | 9083 ft | 284 kts | 125° |
| 2026-05-08 16:59 | 37.53623 | 25.26839 | 9057 ft | 286 kts | 125° |
| 2026-05-08 16:59 | 37.52559 | 25.28983 | 8679 ft | 289 kts | 125° |
| 2026-05-08 16:59 | 37.51498 | 25.31130 | 8423 ft | 285 kts | 125° |
| 2026-05-08 17:00 | 37.50471 | 25.33217 | 8198 ft | 282 kts | 125° |
| 2026-05-08 17:00 | 37.49388 | 25.35238 | 7945 ft | 275 kts | 136° |
| 2026-05-08 17:00 | 37.47912 | 25.36689 | 7608 ft | 265 kts | 157° |
| 2026-05-08 17:00 | 37.46279 | 25.37707 | 7329 ft | 261 kts | 161° |
| 2026-05-08 17:01 | 37.44631 | 25.38650 | 7028 ft | 259 kts | 162° |
| 2026-05-08 17:01 | 37.42954 | 25.39376 | 6715 ft | 249 kts | 180° |
| 2026-05-08 17:01 | 37.41334 | 25.39108 | 6469 ft | 232 kts | 210° |
| 2026-05-08 17:01 | 37.40108 | 25.37879 | 6079 ft | 225 kts | 238° |
| 2026-05-08 17:02 | 37.39613 | 25.36038 | 5729 ft | 225 kts | 267° |
| 2026-05-08 17:02 | 37.39903 | 25.34113 | 5417 ft | 227 kts | 289° |
| 2026-05-08 17:02 | 37.40594 | 25.32329 | 5154 ft | 228 kts | 298° |
| 2026-05-08 17:02 | 37.41516 | 25.30709 | 5092 ft | 229 kts | 304° |
| 2026-05-08 17:03 | 37.42510 | 25.29134 | 5081 ft | 229 kts | 305° |
| 2026-05-08 17:03 | 37.43501 | 25.27582 | 5083 ft | 230 kts | 305° |
| 2026-05-08 17:03 | 37.44505 | 25.26019 | 5089 ft | 229 kts | 305° |
| 2026-05-08 17:03 | 37.45518 | 25.24475 | 5077 ft | 228 kts | 305° |
| 2026-05-08 17:04 | 37.46532 | 25.22935 | 5056 ft | 228 kts | 305° |
| 2026-05-08 17:04 | 37.47541 | 25.21400 | 5000 ft | 228 kts | 305° |
| 2026-05-08 17:04 | 37.48551 | 25.19863 | 4995 ft | 227 kts | 305° |
| 2026-05-08 17:04 | 37.49542 | 25.18392 | 4998 ft | 214 kts | 309° |
| 2026-05-08 17:05 | 37.50805 | 25.17475 | 4994 ft | 211 kts | 343° |
| 2026-05-08 17:05 | 37.52241 | 25.17644 | 4993 ft | 211 kts | 20° |
| 2026-05-08 17:05 | 37.53343 | 25.18821 | 4999 ft | 215 kts | 57° |
| 2026-05-08 17:05 | 37.53754 | 25.20609 | 4904 ft | 209 kts | 95° |
| 2026-05-08 17:06 | 37.53507 | 25.22358 | 4765 ft | 201 kts | 103° |
| 2026-05-08 17:06 | 37.53211 | 25.24066 | 4519 ft | 199 kts | 109° |
| 2026-05-08 17:06 | 37.52849 | 25.25746 | 4269 ft | 197 kts | 110° |
| 2026-05-08 17:06 | 37.52398 | 25.27333 | 4115 ft | 188 kts | 120° |
| 2026-05-08 17:07 | 37.51748 | 25.28710 | 3927 ft | 179 kts | 134° |
| 2026-05-08 17:07 | 37.50965 | 25.29920 | 3601 ft | 179 kts | 137° |
| 2026-05-08 17:07 | 37.50132 | 25.31090 | 3115 ft | 183 kts | 142° |
| 2026-05-08 17:07 | 37.49157 | 25.32140 | 2482 ft | 187 kts | 152° |
| 2026-05-08 17:08 | 37.48015 | 25.32971 | 1786 ft | 191 kts | 161° |
| 2026-05-08 17:08 | 37.46751 | 25.33453 | 1236 ft | 188 kts | 168° |
| 2026-05-08 17:08 | 37.45511 | 25.33911 | 752 ft | 184 kts | 159° |
| 2026-05-08 17:08 | 37.44334 | 25.34460 | 427 ft | 170 kts | 160° |
| 2026-05-08 17:09 | 37.43390 | 25.34877 | 409 ft | 106 kts | 161° |
| 2026-05-08 17:09 | 37.42969 | 25.35064 | 413 ft | 36 kts | 161° |
| 2026-05-08 17:09 | 37.42766 | 25.35145 | 406 ft | 8 kts | 176° |
| 2026-05-08 17:09 | 37.42742 | 25.35160 | 410 ft | 1 kts | 116° |
| 2026-05-08 17:10 | 37.42749 | 25.35173 | 404 ft | 2 kts | 49° |
| 2026-05-08 17:10 | 37.42768 | 25.35167 | 406 ft | 6 kts | 339° |
| 2026-05-08 17:10 | 37.42852 | 25.35118 | 406 ft | 16 kts | 336° |
| 2026-05-08 17:10 | 37.42956 | 25.35069 | 409 ft | 16 kts | 340° |
| 2026-05-08 17:11 | 37.43070 | 25.35019 | 409 ft | 19 kts | 341° |
| 2026-05-08 17:11 | 37.43199 | 25.34962 | 410 ft | 21 kts | 341° |
| 2026-05-08 17:11 | 37.43344 | 25.34897 | 408 ft | 23 kts | 337° |
| 2026-05-08 17:11 | 37.43416 | 25.34782 | 409 ft | 12 kts | 296° |
| 2026-05-08 17:12 | 37.43438 | 25.34721 | 404 ft | 7 kts | 272° |
| 2026-05-08 17:12 | 37.43429 | 25.34686 | 406 ft | 5 kts | 251° |
| 2026-05-08 17:12 | 37.43428 | 25.34684 | 411 ft | 0 kts | 251° |